Time;durP1;ratioP1;P1;durP2;ratioP2;P2;SDS_P1;SDS_P2;PMS_P1;PMS_P2;Temp;Humidity;BMP_temperature;BMP_pressure;BME280_temperature;BME280_humidity;BME280_pressure;Samples;Min_cycle;Max_cycle;Signal;HPM_P1;HPM_P2
2020/12/03 00:02:35;;;;;;;30.13;13.03;;;;;;;4.14;81.43;99858.44;8835391;33;20192;-74
2020/12/03 00:07:37;;;;;;;32.57;14.13;;;;;;;4.19;81.69;99850.25;8835621;33;20205;-74
2020/12/03 00:12:39;;;;;;;30.87;12.70;;;;;;;4.24;81.75;99845.59;8834955;33;20766;-74
2020/12/03 00:17:44;;;;;;;32.55;13.65;;;;;;;4.28;81.38;99857.75;8834290;33;20558;-74
2020/12/03 00:22:46;;;;;;;32.88;14.50;;;;;;;4.31;81.27;99849.69;8835021;33;20190;-74
2020/12/03 00:27:56;;;;;;;32.28;13.18;;;;;;;4.36;81.03;99849.41;8835333;32;20504;-74
2020/12/03 00:32:59;;;;;;;36.75;13.75;;;;;;;4.31;81.04;99847.03;8834830;32;20151;-74
2020/12/03 00:38:01;;;;;;;33.85;14.15;;;;;;;4.33;80.99;99833.72;8838101;32;20249;-74
2020/12/03 00:43:03;;;;;;;31.27;13.35;;;;;;;4.35;80.82;99824.78;8835206;32;20181;-74
2020/12/03 00:48:06;;;;;;;29.33;13.70;;;;;;;4.33;81.04;99826.63;8834906;32;20184;-74
2020/12/03 00:53:09;;;;;;;30.33;13.10;;;;;;;4.36;81.09;99815.03;8832905;33;20135;-74
2020/12/03 00:58:12;;;;;;;33.67;13.75;;;;;;;4.39;81.00;99809.63;8832472;33;20489;-74
2020/12/03 01:03:15;;;;;;;31.52;12.13;;;;;;;4.42;80.99;99790.94;8834165;32;20198;-74
2020/12/03 01:08:17;;;;;;;34.45;13.15;;;;;;;4.42;81.17;99791.81;8834214;33;20194;-74
2020/12/03 01:13:20;;;;;;;27.75;11.60;;;;;;;4.41;80.86;99786.56;8824719;33;20630;-74
2020/12/03 01:18:24;;;;;;;25.10;11.57;;;;;;;4.40;81.00;99783.09;8777237;33;20171;-74
2020/12/03 01:23:26;;;;;;;25.15;11.27;;;;;;;4.50;81.07;99761.44;8774468;33;20279;-74
2020/12/03 01:28:28;;;;;;;22.48;10.88;;;;;;;4.57;80.35;99768.97;8776010;33;20639;-74
2020/12/03 01:33:31;;;;;;;18.55;9.57;;;;;;;4.61;79.79;99759.13;8774350;33;20198;-74
2020/12/03 01:38:34;;;;;;;17.60;9.05;;;;;;;4.70;79.69;99747.19;8773893;33;20451;-74
2020/12/03 01:43:42;;;;;;;19.45;9.80;;;;;;;4.76;79.37;99746.84;8833131;33;20188;-74
2020/12/03 01:48:48;;;;;;;19.30;9.73;;;;;;;4.75;78.78;99740.72;8833300;33;20189;-74
2020/12/03 01:53:53;;;;;;;17.15;9.75;;;;;;;4.72;78.82;99738.25;8807324;33;20956;-74
2020/12/03 01:58:57;;;;;;;21.08;10.90;;;;;;;4.67;78.83;99719.94;8832828;33;21680;-74
2020/12/03 02:04:01;;;;;;;27.13;12.10;;;;;;;4.54;79.39;99718.03;8833176;33;21230;-74
2020/12/03 02:09:05;;;;;;;24.25;12.02;;;;;;;4.43;79.84;99706.22;8832489;33;20168;-74
2020/12/03 02:14:10;;;;;;;32.10;12.30;;;;;;;4.42;79.88;99701.03;8832605;33;20243;-74
2020/12/03 02:19:21;;;;;;;22.88;11.80;;;;;;;4.36;79.90;99694.28;8832188;33;20358;-73
2020/12/03 02:24:26;;;;;;;27.25;12.57;;;;;;;4.29;80.15;99684.94;8807063;33;20709;-74
2020/12/03 02:29:29;;;;;;;27.27;12.80;;;;;;;4.26;80.57;99673.66;8831739;33;20254;-73
2020/12/03 02:34:32;;;;;;;28.80;13.77;;;;;;;4.28;80.57;99654.16;8832924;33;20276;-74
2020/12/03 02:39:38;;;;;;;30.15;12.18;;;;;;;4.28;80.59;99662.09;8831622;33;20178;-73
2020/12/03 02:44:42;;;;;;;27.70;12.13;;;;;;;4.25;80.60;99651.66;8840692;33;20263;-74
2020/12/03 02:49:45;;;;;;;25.43;11.83;;;;;;;4.23;81.10;99638.50;8838147;33;20178;-74
2020/12/03 02:54:50;;;;;;;26.27;11.98;;;;;;;4.13;81.82;99625.84;8837010;33;20272;-74
2020/12/03 02:59:52;;;;;;;30.70;12.23;;;;;;;4.11;82.53;99620.63;8811182;33;20290;-73
2020/12/03 03:04:54;;;;;;;31.70;12.75;;;;;;;4.16;82.91;99621.25;8836810;33;20427;-74
2020/12/03 03:09:58;;;;;;;25.70;10.80;;;;;;;4.18;82.83;99619.38;8836972;33;20256;-74
2020/12/03 03:15:00;;;;;;;26.65;11.32;;;;;;;4.20;82.84;99601.66;8837442;33;20605;-74
2020/12/03 03:20:03;;;;;;;29.05;12.23;;;;;;;4.18;83.11;99589.47;8836254;33;20186;-74
2020/12/03 03:25:08;;;;;;;24.83;11.60;;;;;;;4.17;83.14;99585.13;8836745;33;20197;-74
2020/12/03 03:30:10;;;;;;;23.98;11.27;;;;;;;4.15;82.72;99579.91;8836438;33;20200;-76
2020/12/03 03:35:15;;;;;;;26.02;11.68;;;;;;;4.20;83.01;99577.88;8836680;33;20215;-74
2020/12/03 03:40:19;;;;;;;25.00;11.65;;;;;;;4.22;83.00;99578.66;8836070;33;20139;-74
2020/12/03 03:45:22;;;;;;;21.55;10.75;;;;;;;4.20;82.97;99563.81;8836968;33;20150;-73
2020/12/03 03:50:24;;;;;;;24.55;11.82;;;;;;;4.28;83.11;99561.59;8835373;33;20181;-74
2020/12/03 03:55:28;;;;;;;23.55;10.60;;;;;;;4.22;83.35;99549.56;8836180;33;20149;-74
2020/12/03 04:00:32;;;;;;;20.20;9.03;;;;;;;4.17;83.77;99542.81;8835179;33;20218;-74
2020/12/03 04:05:34;;;;;;;22.38;10.05;;;;;;;4.14;83.84;99535.03;8836360;33;20775;-74
2020/12/03 04:10:37;;;;;;;20.35;9.52;;;;;;;4.17;83.80;99534.88;8834975;33;20157;-74
2020/12/03 04:15:39;;;;;;;22.58;9.82;;;;;;;4.21;84.22;99531.97;8835231;33;20204;-74
2020/12/03 04:20:42;;;;;;;22.50;9.33;;;;;;;4.22;84.15;99533.69;8835016;33;20259;-74
2020/12/03 04:25:47;;;;;;;23.17;10.27;;;;;;;4.27;83.98;99528.13;8835491;33;20439;-74
2020/12/03 04:30:49;;;;;;;21.20;10.27;;;;;;;4.34;84.56;99526.03;8835230;33;20194;-74
2020/12/03 04:35:52;;;;;;;20.88;9.75;;;;;;;4.40;84.74;99521.25;8835505;33;20258;-74
2020/12/03 04:40:57;;;;;;;23.05;11.48;;;;;;;4.40;85.03;99515.97;8835063;33;20194;-74
2020/12/03 04:46:05;;;;;;;24.10;10.32;;;;;;;4.36;84.80;99517.09;8834711;33;20672;-74
2020/12/03 04:51:37;;;;;;;20.73;10.55;;;;;;;4.36;84.89;99503.84;8837537;33;20445;-74
2020/12/03 04:56:50;;;;;;;22.40;10.40;;;;;;;4.34;84.70;99499.59;8833762;33;20688;-74
2020/12/03 05:02:30;;;;;;;25.00;10.60;;;;;;;4.35;84.33;99488.91;8836920;32;20707;-74
2020/12/03 05:07:33;;;;;;;24.47;11.37;;;;;;;4.34;84.23;99486.38;8834724;33;20440;-74
2020/12/03 05:12:42;;;;;;;23.37;10.07;;;;;;;4.29;83.20;99481.31;8829899;33;20614;-74
2020/12/03 05:18:00;;;;;;;24.43;11.80;;;;;;;4.29;83.22;99462.81;8808203;33;20196;-74
2020/12/03 05:23:09;;;;;;;23.07;10.73;;;;;;;4.30;83.14;99450.44;8807563;33;20243;-73
2020/12/03 05:28:36;;;;;;;20.83;9.77;;;;;;;4.31;82.44;99437.16;8833993;33;20288;-74
2020/12/03 05:33:39;;;;;;;25.67;11.50;;;;;;;4.20;82.84;99439.53;8820107;33;20646;-73
2020/12/03 05:38:44;;;;;;;26.60;11.57;;;;;;;4.15;83.71;99428.38;8808608;33;20194;-74
2020/12/03 05:43:47;;;;;;;24.30;12.50;;;;;;;4.00;84.92;99432.69;8808719;33;20532;-73
2020/12/03 05:48:59;;;;;;;22.67;11.27;;;;;;;3.93;85.69;99428.69;8833586;33;20440;-74
2020/12/03 05:54:07;;;;;;;27.00;11.30;;;;;;;3.86;86.20;99436.09;8833078;33;20685;-74
2020/12/03 05:59:15;;;;;;;27.10;12.17;;;;;;;3.82;86.31;99424.00;8807590;33;20181;-74
2020/12/03 06:04:26;;;;;;;28.23;12.60;;;;;;;3.68;86.92;99429.19;8833587;33;20268;-73
2020/12/03 06:09:59;;;;;;;25.83;12.23;;;;;;;3.62;87.07;99418.91;8809188;33;21611;-76
2020/12/03 06:15:16;;;;;;;29.60;12.97;;;;;;;3.66;86.75;99399.34;8808867;33;20277;-76
2020/12/03 06:20:37;;;;;;;28.90;12.67;;;;;;;3.67;86.98;99399.25;8837883;33;20185;-76
2020/12/03 06:25:46;;;;;;;33.03;13.73;;;;;;;3.69;87.08;99392.09;8838531;33;20777;-77
2020/12/03 06:30:56;;;;;;;31.30;13.17;;;;;;;3.67;87.09;99396.59;8838172;33;20978;-75
2020/12/03 06:36:04;;;;;;;33.67;14.07;;;;;;;3.66;87.34;99400.19;8837446;33;21536;-75
2020/12/03 06:41:39;;;;;;;30.57;13.10;;;;;;;3.67;87.32;99387.81;8837862;33;20147;-75
2020/12/03 06:47:17;;;;;;;29.03;10.50;;;;;;;3.71;87.50;99384.09;8821366;33;20819;-76
2020/12/03 06:52:49;;;;;;;32.10;14.10;;;;;;;3.78;87.54;99385.44;8804447;33;20181;-76
2020/12/03 06:58:31;;;;;;;32.10;12.77;;;;;;;3.81;87.63;99373.88;8746256;33;20205;-76
2020/12/03 07:04:19;;;;;;;30.73;13.67;;;;;;;3.81;87.22;99369.44;8786987;33;20185;-75
2020/12/03 07:10:05;;;;;;;30.27;12.33;;;;;;;3.76;87.46;99366.22;8813544;33;20190;-77
2020/12/03 07:16:05;;;;;;;31.03;12.30;;;;;;;3.78;87.67;99353.75;8843885;33;20201;-77
2020/12/03 07:21:54;;;;;;;22.00;9.77;;;;;;;3.83;87.62;99346.44;8690274;33;20473;-77
2020/12/03 07:27:36;;;;;;;30.43;12.13;;;;;;;3.85;87.51;99331.34;8781150;33;20691;-77
2020/12/03 07:32:52;;;;;;;28.80;12.97;;;;;;;3.90;87.60;99309.97;8812237;33;20230;-77
2020/12/03 07:38:09;;;;;;;22.77;9.97;;;;;;;3.95;87.76;99292.91;8837918;33;20242;-77
2020/12/03 07:43:20;;;;;;;36.75;13.70;;;;;;;4.14;87.89;99289.19;8810758;33;20475;-77
2020/12/03 07:48:46;;;;;;;25.83;9.80;;;;;;;4.17;87.63;99275.81;8836044;33;20189;-76
2020/12/03 07:54:24;;;;;;;38.45;13.77;;;;;;;4.25;87.62;99276.22;8835645;33;20667;-73
2020/12/03 07:59:38;;;;;;;30.55;13.88;;;;;;;4.19;87.36;99266.81;8810341;33;20274;-75
2020/12/03 08:04:41;;;;;;;28.23;10.70;;;;;;;4.21;87.05;99270.22;8813061;33;20196;-74
2020/12/03 08:09:46;;;;;;;24.65;11.10;;;;;;;4.33;87.23;99267.81;8840945;33;20275;-75
2020/12/03 08:14:50;;;;;;;20.67;10.23;;;;;;;4.27;87.05;99257.59;8838270;33;20182;-75
2020/12/03 08:20:21;;;;;;;25.63;10.93;;;;;;;4.25;87.19;99263.00;8837826;33;20166;-75
2020/12/03 08:25:27;;;;;;;22.47;9.80;;;;;;;4.33;86.88;99266.00;8834978;33;20513;-73
2020/12/03 08:30:36;;;;;;;23.02;10.07;;;;;;;4.31;86.64;99269.72;8834580;33;20675;-73
2020/12/03 08:35:41;;;;;;;23.08;9.90;;;;;;;4.23;86.41;99263.06;8834165;33;20865;-75
2020/12/03 08:40:47;;;;;;;23.97;11.53;;;;;;;4.23;86.12;99265.72;8836495;33;20300;-75
2020/12/03 08:45:56;;;;;;;24.17;9.63;;;;;;;4.28;86.08;99262.81;8834538;33;20186;-75
2020/12/03 08:51:04;;;;;;;21.20;9.25;;;;;;;4.35;86.22;99258.84;8808610;33;20196;-73
2020/12/03 08:56:29;;;;;;;21.33;9.80;;;;;;;4.50;86.69;99261.50;8834223;33;20532;-74
2020/12/03 09:01:36;;;;;;;24.40;10.98;;;;;;;4.56;86.78;99269.97;8835348;32;20994;-74
2020/12/03 09:06:49;;;;;;;23.58;10.70;;;;;;;4.63;86.37;99265.13;8823427;32;20432;-74
2020/12/03 09:11:52;;;;;;;25.23;10.83;;;;;;;4.65;85.82;99256.16;8893398;32;20422;-73
2020/12/03 09:17:03;;;;;;;23.20;10.50;;;;;;;4.67;85.61;99242.84;8894579;32;20434;-73
2020/12/03 09:22:07;;;;;;;26.17;10.23;;;;;;;4.73;85.02;99229.25;8843902;32;20182;-75
2020/12/03 09:27:14;;;;;;;27.30;11.40;;;;;;;4.86;84.92;99222.25;8832426;32;21880;-75
2020/12/03 09:32:21;;;;;;;27.67;11.35;;;;;;;4.88;84.01;99220.38;8833139;32;20138;-74
2020/12/03 09:37:24;;;;;;;24.75;10.82;;;;;;;4.93;82.94;99211.28;8833668;32;20211;-75
2020/12/03 09:42:33;;;;;;;25.38;11.45;;;;;;;4.94;82.31;99208.56;8832522;32;20150;-74
2020/12/03 09:47:35;;;;;;;23.92;10.85;;;;;;;4.90;81.19;99207.03;8832848;32;20166;-75
2020/12/03 09:52:41;;;;;;;28.25;11.70;;;;;;;5.04;81.92;99198.22;8832943;32;20433;-74
2020/12/03 09:57:53;;;;;;;16.00;7.70;;;;;;;4.94;81.11;99200.63;8833297;32;20514;-74
2020/12/03 10:03:27;;;;;;;24.60;10.52;;;;;;;5.03;81.33;99183.31;8833095;32;22260;-74
2020/12/03 10:09:28;;;;;;;23.70;10.90;;;;;;;5.40;82.19;99167.69;8832207;32;20184;-75
2020/12/03 10:14:53;;;;;;;24.48;11.25;;;;;;;5.50;79.94;99160.84;8832717;32;20200;-75
2020/12/03 10:19:57;;;;;;;25.85;11.60;;;;;;;5.50;79.37;99155.56;8832752;32;20154;-73
2020/12/03 10:25:16;;;;;;;22.30;10.60;;;;;;;5.42;79.28;99134.03;8834551;32;20708;-73
2020/12/03 10:30:33;;;;;;;22.58;10.00;;;;;;;5.34;79.98;99124.75;8833701;32;20540;-75
2020/12/03 10:35:42;;;;;;;20.88;9.90;;;;;;;5.39;79.46;99105.09;8834068;32;20177;-74
2020/12/03 10:40:50;;;;;;;26.88;10.88;;;;;;;5.62;79.21;99098.25;8832057;32;20185;-74
2020/12/03 10:45:57;;;;;;;22.38;10.10;;;;;;;5.64;78.37;99085.75;8832187;32;20717;-74
2020/12/03 10:51:04;;;;;;;24.65;10.35;;;;;;;5.54;79.65;99062.53;8831793;32;20182;-75
2020/12/03 10:56:08;;;;;;;21.38;9.13;;;;;;;5.51;78.92;99067.19;8832000;32;20131;-74
2020/12/03 11:01:20;;;;;;;25.58;10.15;;;;;;;5.89;77.77;99042.53;8855057;32;20181;-72
2020/12/03 11:06:26;;;;;;;21.95;10.15;;;;;;;6.00;75.59;99037.38;8836067;32;20439;-75
2020/12/03 11:11:36;;;;;;;24.50;11.27;;;;;;;5.98;76.71;99024.22;8837146;32;20860;-73
2020/12/03 11:16:45;;;;;;;23.35;9.80;;;;;;;5.92;76.68;99029.06;8836968;32;20189;-73
2020/12/03 11:22:25;;;;;;;22.58;9.48;;;;;;;5.96;78.12;99018.19;8836151;32;20170;-74
2020/12/03 11:27:30;;;;;;;21.98;10.13;;;;;;;5.70;76.35;99006.69;8836228;32;20186;-74
2020/12/03 11:32:32;;;;;;;17.42;8.02;;;;;;;5.43;76.73;99005.91;8836371;32;20182;-74
2020/12/03 11:37:34;;;;;;;23.25;8.95;;;;;;;5.49;77.21;99001.06;8835722;33;20178;-74
2020/12/03 11:42:44;;;;;;;20.88;9.38;;;;;;;5.61;77.82;98983.47;8824389;32;20260;-74
2020/12/03 11:48:14;;;;;;;17.15;7.18;;;;;;;5.39;76.84;98984.09;8836153;32;20624;-73
2020/12/03 11:53:19;;;;;;;19.77;8.45;;;;;;;5.53;77.59;98985.81;8836010;32;20224;-74
2020/12/03 11:58:29;;;;;;;18.17;6.97;;;;;;;5.49;77.30;98974.59;8836595;32;20174;-74
2020/12/03 12:03:32;;;;;;;20.48;8.35;;;;;;;5.63;78.76;98957.75;8836866;32;20466;-74
2020/12/03 12:08:38;;;;;;;22.80;8.73;;;;;;;5.51;77.31;98946.19;8836867;33;20197;-74
2020/12/03 12:13:41;;;;;;;19.23;8.75;;;;;;;5.47;77.44;98914.72;8839306;32;20151;-74
2020/12/03 12:18:43;;;;;;;16.23;7.68;;;;;;;5.54;77.62;98894.81;8835441;32;20198;-74
2020/12/03 12:23:45;;;;;;;19.35;8.38;;;;;;;5.63;78.21;98888.84;8835532;32;20243;-74
2020/12/03 12:28:49;;;;;;;20.48;8.50;;;;;;;5.74;79.07;98875.69;8834771;32;20226;-75
2020/12/03 12:33:51;;;;;;;18.58;8.20;;;;;;;5.83;78.35;98874.19;8834228;32;20142;-74
2020/12/03 12:38:53;;;;;;;13.40;7.70;;;;;;;5.76;77.75;98865.00;8834418;32;20563;-74
2020/12/03 12:43:56;;;;;;;17.08;8.35;;;;;;;5.84;77.06;98856.47;8833887;32;20186;-74
2020/12/03 12:48:58;;;;;;;15.15;7.57;;;;;;;5.97;77.04;98849.38;8833931;32;20842;-72
2020/12/03 12:54:00;;;;;;;18.35;7.80;;;;;;;6.19;76.59;98838.03;8834085;32;21795;-74
2020/12/03 12:59:03;;;;;;;16.92;8.40;;;;;;;7.22;74.06;98827.66;8833764;32;20186;-73
2020/12/03 13:04:06;;;;;;;17.08;8.68;;;;;;;8.75;68.64;98803.75;8834210;32;22000;-73
2020/12/03 13:09:09;;;;;;;15.63;6.97;;;;;;;9.21;67.10;98805.97;8833711;33;20690;-73
2020/12/03 13:14:12;;;;;;;14.05;8.13;;;;;;;9.26;68.01;98792.28;8833922;33;20177;-74
2020/12/03 13:19:15;;;;;;;12.98;6.85;;;;;;;8.13;68.95;98787.53;8833515;32;20269;-74
2020/12/03 13:24:17;;;;;;;12.60;6.55;;;;;;;7.20;71.69;98779.94;8833454;33;20246;-72
2020/12/03 13:29:21;;;;;;;13.73;7.25;;;;;;;6.59;73.46;98769.59;8833553;33;20182;-75
2020/12/03 13:34:23;;;;;;;11.40;6.60;;;;;;;6.47;73.81;98751.94;8833186;32;20178;-72
2020/12/03 13:39:26;;;;;;;13.20;6.82;;;;;;;6.60;73.11;98739.44;8830304;33;20261;-72
2020/12/03 13:44:29;;;;;;;14.48;7.28;;;;;;;7.28;72.16;98740.34;8833200;33;20587;-74
2020/12/03 13:49:31;;;;;;;14.98;7.57;;;;;;;6.75;72.06;98734.78;8832443;33;20182;-72
2020/12/03 13:54:35;;;;;;;14.75;7.65;;;;;;;6.33;73.86;98733.59;8796246;32;20189;-74
2020/12/03 13:59:38;;;;;;;14.50;6.97;;;;;;;6.16;74.88;98721.59;8832151;33;20178;-74
2020/12/03 14:04:40;;;;;;;13.68;7.13;;;;;;;5.99;75.69;98715.75;8832917;33;20182;-74
2020/12/03 14:09:42;;;;;;;11.35;6.00;;;;;;;5.88;75.65;98699.78;8832470;33;20281;-74
2020/12/03 14:14:47;;;;;;;14.02;6.22;;;;;;;5.87;76.35;98686.63;8833112;33;20243;-74
2020/12/03 14:19:49;;;;;;;16.23;8.00;;;;;;;5.68;75.70;98689.81;8831662;33;20178;-75
2020/12/03 14:24:51;;;;;;;17.30;7.57;;;;;;;5.56;76.14;98684.44;8832213;33;20182;-74
2020/12/03 14:29:54;;;;;;;12.60;7.07;;;;;;;5.26;75.22;98678.72;8831448;33;20212;-75
2020/12/03 14:34:56;;;;;;;13.05;6.97;;;;;;;5.21;75.29;98671.13;8832247;33;20182;-74
2020/12/03 14:39:58;;;;;;;17.00;8.10;;;;;;;5.24;75.25;98655.03;8836092;33;21178;-74
2020/12/03 14:45:09;;;;;;;17.75;8.18;;;;;;;5.07;75.39;98664.19;8837455;33;20227;-74
2020/12/03 14:50:16;;;;;;;14.30;8.30;;;;;;;5.00;74.91;98648.84;8836593;33;20216;-74
2020/12/03 14:55:19;;;;;;;16.80;7.93;;;;;;;4.88;75.55;98648.78;8836942;33;20899;-74
2020/12/03 15:00:22;;;;;;;20.00;8.93;;;;;;;4.80;75.31;98635.25;8848984;32;20215;-74
2020/12/03 15:05:24;;;;;;;18.90;9.25;;;;;;;4.65;75.70;98625.72;8811597;33;21486;-74
2020/12/03 15:10:30;;;;;;;20.02;8.35;;;;;;;4.75;75.59;98625.94;8836402;33;20143;-74
2020/12/03 15:15:34;;;;;;;15.40;7.68;;;;;;;4.72;75.62;98636.72;8836484;33;20149;-74
2020/12/03 15:20:36;;;;;;;18.33;8.75;;;;;;;4.66;75.80;98630.06;8835411;33;20250;-73
2020/12/03 15:25:38;;;;;;;22.80;9.70;;;;;;;4.63;75.95;98612.59;8836046;33;20181;-72
2020/12/03 15:30:43;;;;;;;20.80;10.03;;;;;;;4.67;75.94;98613.25;8835701;33;20694;-74
2020/12/03 15:35:45;;;;;;;18.45;9.27;;;;;;;4.56;75.70;98608.72;8835637;33;20190;-74
2020/12/03 15:40:47;;;;;;;24.20;10.07;;;;;;;4.71;75.55;98606.78;8786540;33;20189;-74
2020/12/03 15:45:50;;;;;;;26.47;11.40;;;;;;;4.60;75.80;98598.75;8835409;33;20190;-74
2020/12/03 15:50:55;;;;;;;17.93;7.53;;;;;;;4.51;75.96;98602.91;8835621;33;20431;-73
2020/12/03 15:55:57;;;;;;;21.97;10.37;;;;;;;4.57;75.86;98599.81;8835800;33;20227;-74
2020/12/03 16:01:00;;;;;;;16.10;7.63;;;;;;;4.43;75.84;98592.84;8835240;33;20190;-74
2020/12/03 16:06:07;;;;;;;18.77;9.20;;;;;;;4.42;75.99;98571.84;8835714;33;20190;-74
2020/12/03 16:11:10;;;;;;;23.00;10.83;;;;;;;4.52;75.78;98572.00;8834880;33;21939;-73
2020/12/03 16:16:14;;;;;;;22.70;8.33;;;;;;;4.43;75.95;98565.56;8835908;33;20184;-74
2020/12/03 16:21:16;;;;;;;24.45;11.43;;;;;;;4.42;76.23;98561.25;8835025;33;20197;-74
2020/12/03 16:26:19;;;;;;;29.83;12.67;;;;;;;4.41;75.93;98564.84;8831324;33;20228;-73
2020/12/03 16:31:29;;;;;;;28.37;11.87;;;;;;;4.34;76.36;98547.72;8834245;33;20178;-74
2020/12/03 16:36:36;;;;;;;23.00;10.50;;;;;;;4.30;76.46;98540.94;8834308;33;20182;-74
2020/12/03 16:41:40;;;;;;;27.50;12.30;;;;;;;4.28;76.42;98527.88;8839174;32;20182;-73
2020/12/03 16:46:44;;;;;;;27.02;11.82;;;;;;;4.33;76.49;98515.13;8892861;32;20449;-74
2020/12/03 16:51:57;;;;;;;26.17;11.47;;;;;;;4.36;76.48;98512.31;8894673;32;20125;-74
2020/12/03 16:56:59;;;;;;;27.47;11.07;;;;;;;4.26;76.40;98498.03;8893985;32;21408;-74
2020/12/03 17:02:03;;;;;;;27.87;12.47;;;;;;;4.38;76.07;98494.50;8894001;32;20455;-74
2020/12/03 17:07:05;;;;;;;28.63;12.77;;;;;;;4.33;76.06;98478.13;8869552;32;20146;-73
2020/12/03 17:12:07;;;;;;;27.13;12.97;;;;;;;4.39;76.13;98469.78;8894616;32;20181;-74
2020/12/03 17:17:10;;;;;;;29.60;13.07;;;;;;;4.30;75.99;98459.84;8894638;32;20450;-73
2020/12/03 17:22:13;;;;;;;30.90;12.63;;;;;;;4.29;76.07;98452.88;8871036;32;20192;-74
2020/12/03 17:27:16;;;;;;;27.53;12.20;;;;;;;4.17;76.30;98451.13;8894111;32;20230;-73
2020/12/03 17:32:19;;;;;;;24.13;12.97;;;;;;;4.17;75.98;98437.91;8869273;32;20149;-74
2020/12/03 17:37:21;;;;;;;26.80;13.03;;;;;;;4.25;75.79;98432.94;8894742;32;20195;-74
2020/12/03 17:42:24;;;;;;;23.53;11.77;;;;;;;4.31;75.60;98429.84;8895403;32;20268;-75
2020/12/03 17:47:27;;;;;;;19.97;9.30;;;;;;;4.31;75.41;98429.84;8895045;32;20184;-74
2020/12/03 17:52:29;;;;;;;23.17;11.73;;;;;;;4.31;75.29;98410.50;8894530;32;20313;-73
2020/12/03 17:57:32;;;;;;;22.10;11.80;;;;;;;4.22;75.76;98410.19;8892827;32;20709;-73
2020/12/03 18:02:35;;;;;;;25.20;12.50;;;;;;;4.27;75.26;98398.44;8866906;32;20166;-73
2020/12/03 18:07:37;;;;;;;22.37;12.10;;;;;;;4.24;74.89;98396.84;8827175;33;20651;-75
2020/12/03 18:12:40;;;;;;;24.67;11.30;;;;;;;4.19;75.09;98380.47;8837022;33;20139;-75
2020/12/03 18:17:43;;;;;;;29.77;12.80;;;;;;;4.16;74.93;98375.41;8838103;33;20185;-73
2020/12/03 18:22:46;;;;;;;20.70;10.97;;;;;;;4.01;75.17;98361.53;8900203;32;20605;-75
2020/12/03 18:27:48;;;;;;;25.10;12.37;;;;;;;4.05;74.62;98360.34;8872621;32;20173;-73
2020/12/03 18:32:52;;;;;;;21.70;11.10;;;;;;;4.07;74.68;98354.97;8897933;32;20146;-73
2020/12/03 18:37:54;;;;;;;17.37;8.17;;;;;;;4.06;74.18;98345.31;8898165;32;20193;-73
2020/12/03 18:42:56;;;;;;;20.10;10.93;;;;;;;4.08;73.93;98328.41;8898057;32;20211;-73
2020/12/03 18:47:59;;;;;;;25.00;11.27;;;;;;;4.06;73.85;98329.47;8898112;32;20429;-74
2020/12/03 18:53:02;;;;;;;18.67;10.07;;;;;;;4.07;73.62;98320.59;8897876;32;20421;-74
2020/12/03 18:58:04;;;;;;;20.23;11.77;;;;;;;4.08;73.37;98303.78;8898036;32;21373;-73
2020/12/03 19:03:09;;;;;;;21.03;9.40;;;;;;;4.15;73.40;98305.03;8897172;32;20201;-74
2020/12/03 19:08:14;;;;;;;18.50;9.23;;;;;;;4.12;73.40;98289.41;8897598;32;20935;-73
2020/12/03 19:13:17;;;;;;;17.97;9.67;;;;;;;4.11;73.18;98291.19;8866804;32;20146;-73
2020/12/03 19:18:21;;;;;;;17.50;7.90;;;;;;;4.08;73.10;98282.66;8897107;32;20626;-74
2020/12/03 19:23:28;;;;;;;18.03;9.37;;;;;;;4.20;72.88;98282.59;8897493;32;20193;-72
2020/12/03 19:28:30;;;;;;;20.07;9.53;;;;;;;4.27;72.59;98290.91;8896862;32;20181;-75
2020/12/03 19:33:33;;;;;;;15.77;8.27;;;;;;;4.20;72.65;98273.81;8894825;32;20170;-74
2020/12/03 19:38:35;;;;;;;17.23;8.10;;;;;;;4.41;72.13;98264.25;8868560;32;20189;-75
2020/12/03 19:43:38;;;;;;;20.07;9.00;;;;;;;4.49;72.03;98271.63;8896262;32;20679;-74
2020/12/03 19:48:44;;;;;;;22.73;9.53;;;;;;;4.57;71.67;98261.31;8896925;32;20349;-72
2020/12/03 19:53:46;;;;;;;17.47;8.30;;;;;;;4.40;72.00;98243.25;8894317;32;20185;-73
2020/12/03 19:58:48;;;;;;;15.20;7.77;;;;;;;4.41;71.61;98248.41;8897379;32;20142;-72
2020/12/03 20:03:51;;;;;;;14.25;7.07;;;;;;;4.46;71.51;98240.13;8896433;32;20185;-73
2020/12/03 20:08:54;;;;;;;15.37;8.07;;;;;;;4.47;71.53;98236.56;8897810;32;20192;-74
2020/12/03 20:13:56;;;;;;;14.67;7.20;;;;;;;4.51;71.39;98224.75;8896410;32;20185;-73
2020/12/03 20:18:59;;;;;;;16.43;8.37;;;;;;;4.49;71.25;98212.63;8895993;32;21030;-73
2020/12/03 20:24:02;;;;;;;15.33;8.00;;;;;;;4.42;70.84;98223.66;8870359;32;20138;-73
2020/12/03 20:29:04;;;;;;;16.03;7.50;;;;;;;4.42;71.16;98218.38;8895343;32;20146;-75
2020/12/03 20:34:07;;;;;;;16.03;8.77;;;;;;;4.35;71.17;98217.16;8894514;32;20212;-72
2020/12/03 20:39:09;;;;;;;14.13;7.30;;;;;;;4.44;70.54;98216.47;8868617;32;20181;-74
2020/12/03 20:44:11;;;;;;;17.67;8.77;;;;;;;4.38;70.94;98201.06;8896456;32;20526;-72
2020/12/03 20:49:15;;;;;;;15.20;7.80;;;;;;;4.37;71.01;98198.53;8896379;32;20152;-72
2020/12/03 20:54:18;;;;;;;19.63;9.47;;;;;;;4.28;70.38;98178.94;8898599;32;20173;-73
2020/12/03 20:59:21;;;;;;;19.20;8.03;;;;;;;4.39;70.12;98178.97;8868684;32;20254;-73
2020/12/03 21:04:24;;;;;;;17.03;7.53;;;;;;;4.45;70.17;98173.19;8894862;32;20188;-73
2020/12/03 21:09:27;;;;;;;19.03;8.83;;;;;;;4.44;69.87;98160.94;8894727;32;20173;-74
2020/12/03 21:14:30;;;;;;;18.03;7.87;;;;;;;4.49;69.36;98165.03;8894550;32;20184;-73
2020/12/03 21:19:33;;;;;;;15.43;7.53;;;;;;;4.46;69.18;98161.66;8893933;32;20154;-72
2020/12/03 21:24:36;;;;;;;13.00;6.83;;;;;;;4.54;69.06;98160.22;8868784;32;20195;-76
2020/12/03 21:29:38;;;;;;;15.27;7.67;;;;;;;4.60;68.94;98157.09;8895180;32;20173;-73
2020/12/03 21:34:41;;;;;;;18.60;8.53;;;;;;;4.55;68.87;98154.84;8857157;32;20316;-74
2020/12/03 21:39:43;;;;;;;19.47;9.70;;;;;;;4.59;68.68;98147.50;8824662;32;20662;-73
2020/12/03 21:44:45;;;;;;;16.30;8.07;;;;;;;4.56;68.84;98138.00;8867673;32;20244;-73
2020/12/03 21:49:49;;;;;;;14.03;7.23;;;;;;;4.66;68.13;98133.69;8854141;32;20137;-74
2020/12/03 21:54:51;;;;;;;17.55;8.75;;;;;;;4.67;68.26;98137.16;8828295;33;20142;-74
2020/12/03 21:59:54;;;;;;;18.67;8.90;;;;;;;4.62;68.06;98123.44;8830230;33;20486;-74
2020/12/03 22:04:57;;;;;;;13.47;6.07;;;;;;;4.46;67.39;98114.06;8832157;33;20142;-74
2020/12/03 22:09:59;;;;;;;16.07;7.70;;;;;;;4.51;67.63;98095.19;8806926;33;20158;-74
2020/12/03 22:15:01;;;;;;;13.10;6.25;;;;;;;4.50;67.27;98088.25;8833538;33;20585;-74
2020/12/03 22:20:04;;;;;;;12.13;6.17;;;;;;;4.48;66.50;98076.09;8832823;33;20257;-74
2020/12/03 22:25:06;;;;;;;14.57;7.43;;;;;;;4.56;66.32;98079.81;8833203;33;20270;-74
2020/12/03 22:30:09;;;;;;;16.63;7.67;;;;;;;4.67;65.99;98090.38;8832706;33;20461;-74
2020/12/03 22:35:12;;;;;;;13.98;7.53;;;;;;;4.75;65.73;98086.31;8833086;33;20154;-74
2020/12/03 22:40:14;;;;;;;12.93;7.13;;;;;;;4.70;65.46;98077.91;8831044;33;20182;-74
2020/12/03 22:45:20;;;;;;;9.80;5.27;;;;;;;4.72;65.28;98068.00;8832327;33;20178;-74
2020/12/03 22:50:23;;;;;;;14.97;7.60;;;;;;;4.62;64.99;98042.31;8831703;33;20184;-74
2020/12/03 22:55:25;;;;;;;10.67;6.30;;;;;;;4.71;65.03;98032.78;8831902;33;20184;-73
2020/12/03 23:00:27;;;;;;;15.93;6.93;;;;;;;4.70;65.08;98020.53;8809633;33;20405;-74
2020/12/03 23:05:30;;;;;;;12.13;6.80;;;;;;;4.71;65.00;98024.84;8865043;32;20375;-73
2020/12/03 23:10:33;;;;;;;15.07;7.23;;;;;;;4.70;64.97;98025.84;8898271;32;20189;-75
2020/12/03 23:15:36;;;;;;;11.93;5.67;;;;;;;4.62;65.66;98018.50;8898966;32;20425;-74
2020/12/03 23:20:39;;;;;;;15.53;7.37;;;;;;;4.70;64.97;98002.03;8897310;32;20611;-74
2020/12/03 23:25:41;;;;;;;14.50;7.07;;;;;;;4.57;64.96;98001.34;8897345;32;20181;-74
2020/12/03 23:30:43;;;;;;;12.20;7.47;;;;;;;4.85;64.63;97984.94;8896048;32;20567;-75
2020/12/03 23:35:46;;;;;;;15.17;7.77;;;;;;;4.69;64.78;97981.84;8896265;32;20196;-74
2020/12/03 23:40:49;;;;;;;16.80;6.47;;;;;;;4.52;65.03;97966.47;8869884;32;20182;-75
2020/12/03 23:45:51;;;;;;;8.07;4.60;;;;;;;4.61;64.79;97963.13;8896131;32;20717;-75
2020/12/03 23:50:54;;;;;;;12.80;7.67;;;;;;;4.53;65.34;97950.50;8895511;32;20553;-75
2020/12/03 23:55:56;;;;;;;12.73;6.33;;;;;;;4.41;65.29;97933.81;8895297;32;20193;-73
